sensor_id;sensor_type;location;lat;lon;timestamp;P1;durP1;ratioP1;P2;durP2;ratioP2
5762;SDS011;2906;53.282;9.508;2023-02-03T00:00:44;42.30;;;13.50;;
5762;SDS011;2906;53.282;9.508;2023-02-03T00:01:46;28.38;;;11.10;;
5762;SDS011;2906;53.282;9.508;2023-02-03T00:02:47;35.65;;;14.13;;
5762;SDS011;2906;53.282;9.508;2023-02-03T00:03:50;29.55;;;11.98;;
5762;SDS011;2906;53.282;9.508;2023-02-03T00:04:51;33.20;;;13.10;;
5762;SDS011;2906;53.282;9.508;2023-02-03T00:05:55;31.48;;;12.10;;
5762;SDS011;2906;53.282;9.508;2023-02-03T00:06:56;30.48;;;11.73;;
5762;SDS011;2906;53.282;9.508;2023-02-03T00:07:59;33.63;;;12.50;;
5762;SDS011;2906;53.282;9.508;2023-02-03T00:09:00;28.27;;;10.93;;
5762;SDS011;2906;53.282;9.508;2023-02-03T00:10:03;40.88;;;14.20;;
5762;SDS011;2906;53.282;9.508;2023-02-03T00:11:07;30.25;;;11.90;;
5762;SDS011;2906;53.282;9.508;2023-02-03T00:12:09;34.42;;;13.32;;
5762;SDS011;2906;53.282;9.508;2023-02-03T00:13:11;29.77;;;11.20;;
5762;SDS011;2906;53.282;9.508;2023-02-03T00:14:13;31.02;;;12.10;;
5762;SDS011;2906;53.282;9.508;2023-02-03T00:15:14;34.30;;;11.75;;
5762;SDS011;2906;53.282;9.508;2023-02-03T00:16:18;30.67;;;11.48;;
5762;SDS011;2906;53.282;9.508;2023-02-03T00:17:19;28.30;;;11.60;;
5762;SDS011;2906;53.282;9.508;2023-02-03T00:18:24;33.67;;;11.35;;
5762;SDS011;2906;53.282;9.508;2023-02-03T00:19:25;29.55;;;11.27;;
5762;SDS011;2906;53.282;9.508;2023-02-03T00:20:27;34.92;;;11.50;;
5762;SDS011;2906;53.282;9.508;2023-02-03T00:21:30;33.47;;;11.43;;
5762;SDS011;2906;53.282;9.508;2023-02-03T00:22:33;31.65;;;10.70;;
5762;SDS011;2906;53.282;9.508;2023-02-03T00:23:34;30.17;;;12.40;;
5762;SDS011;2906;53.282;9.508;2023-02-03T00:24:37;33.30;;;12.02;;
5762;SDS011;2906;53.282;9.508;2023-02-03T00:25:38;25.95;;;10.98;;
5762;SDS011;2906;53.282;9.508;2023-02-03T00:26:41;24.80;;;10.57;;
5762;SDS011;2906;53.282;9.508;2023-02-03T00:27:43;22.30;;;8.82;;
5762;SDS011;2906;53.282;9.508;2023-02-03T00:28:45;31.52;;;11.43;;
5762;SDS011;2906;53.282;9.508;2023-02-03T00:29:46;28.33;;;11.75;;
5762;SDS011;2906;53.282;9.508;2023-02-03T00:30:49;29.77;;;11.63;;
5762;SDS011;2906;53.282;9.508;2023-02-03T00:31:53;40.33;;;13.48;;
5762;SDS011;2906;53.282;9.508;2023-02-03T00:32:55;30.30;;;13.10;;
5762;SDS011;2906;53.282;9.508;2023-02-03T00:33:57;37.28;;;12.00;;
5762;SDS011;2906;53.282;9.508;2023-02-03T00:34:59;34.90;;;12.73;;
5762;SDS011;2906;53.282;9.508;2023-02-03T00:36:03;25.33;;;8.23;;
5762;SDS011;2906;53.282;9.508;2023-02-03T00:37:07;24.00;;;11.25;;
5762;SDS011;2906;53.282;9.508;2023-02-03T00:38:08;34.97;;;11.23;;
5762;SDS011;2906;53.282;9.508;2023-02-03T00:39:10;31.40;;;11.45;;
5762;SDS011;2906;53.282;9.508;2023-02-03T00:40:12;35.75;;;11.10;;
5762;SDS011;2906;53.282;9.508;2023-02-03T00:41:14;38.17;;;11.10;;
5762;SDS011;2906;53.282;9.508;2023-02-03T00:42:15;25.85;;;10.35;;
5762;SDS011;2906;53.282;9.508;2023-02-03T00:43:17;35.28;;;10.95;;
5762;SDS011;2906;53.282;9.508;2023-02-03T00:44:19;29.25;;;9.55;;
5762;SDS011;2906;53.282;9.508;2023-02-03T00:45:21;28.33;;;10.43;;
5762;SDS011;2906;53.282;9.508;2023-02-03T00:46:22;25.70;;;10.80;;
5762;SDS011;2906;53.282;9.508;2023-02-03T00:47:25;27.00;;;10.07;;
5762;SDS011;2906;53.282;9.508;2023-02-03T00:48:26;28.75;;;9.18;;
5762;SDS011;2906;53.282;9.508;2023-02-03T00:49:29;32.38;;;10.55;;
5762;SDS011;2906;53.282;9.508;2023-02-03T00:50:30;32.75;;;11.60;;
5762;SDS011;2906;53.282;9.508;2023-02-03T00:51:33;27.35;;;10.73;;
5762;SDS011;2906;53.282;9.508;2023-02-03T00:52:35;28.85;;;10.68;;
5762;SDS011;2906;53.282;9.508;2023-02-03T00:53:38;29.73;;;10.30;;
5762;SDS011;2906;53.282;9.508;2023-02-03T00:54:39;34.95;;;11.07;;
5762;SDS011;2906;53.282;9.508;2023-02-03T00:55:41;30.52;;;11.10;;
5762;SDS011;2906;53.282;9.508;2023-02-03T00:56:43;32.92;;;11.05;;
5762;SDS011;2906;53.282;9.508;2023-02-03T00:57:45;32.22;;;10.55;;
5762;SDS011;2906;53.282;9.508;2023-02-03T00:58:47;29.08;;;10.82;;
5762;SDS011;2906;53.282;9.508;2023-02-03T00:59:49;32.53;;;11.27;;
5762;SDS011;2906;53.282;9.508;2023-02-03T01:00:50;34.97;;;11.13;;
5762;SDS011;2906;53.282;9.508;2023-02-03T01:01:52;33.70;;;12.40;;
5762;SDS011;2906;53.282;9.508;2023-02-03T01:02:54;29.73;;;10.75;;
5762;SDS011;2906;53.282;9.508;2023-02-03T01:03:56;29.10;;;9.95;;
5762;SDS011;2906;53.282;9.508;2023-02-03T01:04:58;30.65;;;10.10;;
5762;SDS011;2906;53.282;9.508;2023-02-03T01:06:08;31.52;;;11.10;;
5762;SDS011;2906;53.282;9.508;2023-02-03T01:07:09;34.92;;;10.65;;
5762;SDS011;2906;53.282;9.508;2023-02-03T01:08:13;33.58;;;10.80;;
5762;SDS011;2906;53.282;9.508;2023-02-03T01:09:15;29.70;;;10.88;;
5762;SDS011;2906;53.282;9.508;2023-02-03T01:10:17;27.02;;;10.60;;
5762;SDS011;2906;53.282;9.508;2023-02-03T01:11:19;32.30;;;10.38;;
5762;SDS011;2906;53.282;9.508;2023-02-03T01:12:22;42.15;;;10.98;;
5762;SDS011;2906;53.282;9.508;2023-02-03T01:13:23;32.25;;;10.80;;
5762;SDS011;2906;53.282;9.508;2023-02-03T01:14:25;27.10;;;9.13;;
5762;SDS011;2906;53.282;9.508;2023-02-03T01:15:27;29.75;;;10.43;;
5762;SDS011;2906;53.282;9.508;2023-02-03T01:16:29;29.17;;;10.75;;
5762;SDS011;2906;53.282;9.508;2023-02-03T01:17:34;29.75;;;10.88;;
5762;SDS011;2906;53.282;9.508;2023-02-03T01:18:37;24.98;;;8.60;;
5762;SDS011;2906;53.282;9.508;2023-02-03T01:19:38;26.27;;;9.57;;
5762;SDS011;2906;53.282;9.508;2023-02-03T01:20:41;35.60;;;11.95;;
5762;SDS011;2906;53.282;9.508;2023-02-03T01:21:42;28.30;;;10.00;;
5762;SDS011;2906;53.282;9.508;2023-02-03T01:22:44;34.05;;;11.05;;
5762;SDS011;2906;53.282;9.508;2023-02-03T01:23:47;32.03;;;9.63;;
5762;SDS011;2906;53.282;9.508;2023-02-03T01:24:49;29.30;;;9.95;;
5762;SDS011;2906;53.282;9.508;2023-02-03T01:25:50;25.15;;;9.43;;
5762;SDS011;2906;53.282;9.508;2023-02-03T01:26:53;32.03;;;9.85;;
5762;SDS011;2906;53.282;9.508;2023-02-03T01:27:54;28.58;;;10.52;;
5762;SDS011;2906;53.282;9.508;2023-02-03T01:28:57;31.80;;;10.50;;
5762;SDS011;2906;53.282;9.508;2023-02-03T01:29:59;31.45;;;10.82;;
5762;SDS011;2906;53.282;9.508;2023-02-03T01:31:09;27.17;;;8.77;;
5762;SDS011;2906;53.282;9.508;2023-02-03T01:32:11;30.92;;;9.93;;
5762;SDS011;2906;53.282;9.508;2023-02-03T01:33:13;29.02;;;9.30;;
5762;SDS011;2906;53.282;9.508;2023-02-03T01:34:14;27.23;;;9.50;;
5762;SDS011;2906;53.282;9.508;2023-02-03T01:35:17;29.48;;;9.25;;
5762;SDS011;2906;53.282;9.508;2023-02-03T01:36:19;21.83;;;8.23;;
5762;SDS011;2906;53.282;9.508;2023-02-03T01:37:21;23.75;;;9.35;;
5762;SDS011;2906;53.282;9.508;2023-02-03T01:38:23;24.13;;;9.15;;
5762;SDS011;2906;53.282;9.508;2023-02-03T01:39:26;37.60;;;12.60;;
5762;SDS011;2906;53.282;9.508;2023-02-03T01:40:29;27.10;;;7.85;;
5762;SDS011;2906;53.282;9.508;2023-02-03T01:41:31;24.63;;;8.77;;
5762;SDS011;2906;53.282;9.508;2023-02-03T01:42:34;24.02;;;9.52;;
5762;SDS011;2906;53.282;9.508;2023-02-03T01:43:35;23.88;;;9.02;;
5762;SDS011;2906;53.282;9.508;2023-02-03T01:44:40;32.03;;;9.35;;
5762;SDS011;2906;53.282;9.508;2023-02-03T01:45:42;30.33;;;8.50;;
5762;SDS011;2906;53.282;9.508;2023-02-03T01:46:45;26.48;;;8.73;;
5762;SDS011;2906;53.282;9.508;2023-02-03T01:47:48;23.67;;;8.05;;
5762;SDS011;2906;53.282;9.508;2023-02-03T01:48:52;27.27;;;9.27;;
5762;SDS011;2906;53.282;9.508;2023-02-03T01:49:56;28.00;;;9.55;;
5762;SDS011;2906;53.282;9.508;2023-02-03T01:51:00;21.30;;;8.05;;
5762;SDS011;2906;53.282;9.508;2023-02-03T01:52:02;23.60;;;9.32;;
5762;SDS011;2906;53.282;9.508;2023-02-03T01:53:05;30.35;;;7.80;;
5762;SDS011;2906;53.282;9.508;2023-02-03T01:54:07;29.75;;;10.98;;
5762;SDS011;2906;53.282;9.508;2023-02-03T01:55:14;21.90;;;7.15;;
5762;SDS011;2906;53.282;9.508;2023-02-03T01:56:16;38.80;;;9.13;;
5762;SDS011;2906;53.282;9.508;2023-02-03T01:57:20;31.20;;;7.50;;
5762;SDS011;2906;53.282;9.508;2023-02-03T01:58:22;20.65;;;8.07;;
5762;SDS011;2906;53.282;9.508;2023-02-03T01:59:26;28.35;;;8.02;;
5762;SDS011;2906;53.282;9.508;2023-02-03T02:00:29;26.23;;;7.85;;
5762;SDS011;2906;53.282;9.508;2023-02-03T02:01:31;23.60;;;7.10;;
5762;SDS011;2906;53.282;9.508;2023-02-03T02:02:33;24.33;;;7.47;;
5762;SDS011;2906;53.282;9.508;2023-02-03T02:03:36;25.13;;;7.05;;
5762;SDS011;2906;53.282;9.508;2023-02-03T02:04:41;25.40;;;7.15;;
5762;SDS011;2906;53.282;9.508;2023-02-03T02:05:46;25.08;;;7.40;;
5762;SDS011;2906;53.282;9.508;2023-02-03T02:06:49;18.30;;;7.20;;
5762;SDS011;2906;53.282;9.508;2023-02-03T02:07:51;23.35;;;7.72;;
5762;SDS011;2906;53.282;9.508;2023-02-03T02:08:53;20.05;;;6.55;;
5762;SDS011;2906;53.282;9.508;2023-02-03T02:09:55;25.95;;;6.70;;
5762;SDS011;2906;53.282;9.508;2023-02-03T02:10:59;23.10;;;7.05;;
5762;SDS011;2906;53.282;9.508;2023-02-03T02:12:01;24.27;;;6.18;;
5762;SDS011;2906;53.282;9.508;2023-02-03T02:13:03;23.50;;;6.68;;
5762;SDS011;2906;53.282;9.508;2023-02-03T02:14:05;17.15;;;5.93;;
5762;SDS011;2906;53.282;9.508;2023-02-03T02:15:07;23.60;;;6.38;;
5762;SDS011;2906;53.282;9.508;2023-02-03T02:16:09;19.23;;;6.82;;
5762;SDS011;2906;53.282;9.508;2023-02-03T02:17:16;22.58;;;6.20;;
5762;SDS011;2906;53.282;9.508;2023-02-03T02:18:23;21.90;;;6.40;;
5762;SDS011;2906;53.282;9.508;2023-02-03T02:20:47;25.65;;;6.18;;
5762;SDS011;2906;53.282;9.508;2023-02-03T02:22:00;25.17;;;5.07;;
5762;SDS011;2906;53.282;9.508;2023-02-03T02:23:10;22.00;;;6.32;;
5762;SDS011;2906;53.282;9.508;2023-02-03T02:24:25;23.40;;;6.00;;
5762;SDS011;2906;53.282;9.508;2023-02-03T02:25:37;18.13;;;6.28;;
5762;SDS011;2906;53.282;9.508;2023-02-03T02:26:49;23.17;;;5.70;;
5762;SDS011;2906;53.282;9.508;2023-02-03T02:28:08;23.13;;;4.50;;
5762;SDS011;2906;53.282;9.508;2023-02-03T02:29:19;22.00;;;5.63;;
5762;SDS011;2906;53.282;9.508;2023-02-03T02:30:30;16.58;;;4.95;;
5762;SDS011;2906;53.282;9.508;2023-02-03T02:31:48;19.23;;;3.72;;
5762;SDS011;2906;53.282;9.508;2023-02-03T02:32:56;23.52;;;5.95;;
5762;SDS011;2906;53.282;9.508;2023-02-03T02:34:02;19.05;;;5.15;;
5762;SDS011;2906;53.282;9.508;2023-02-03T02:35:08;12.32;;;3.65;;
5762;SDS011;2906;53.282;9.508;2023-02-03T02:36:16;20.77;;;5.28;;
5762;SDS011;2906;53.282;9.508;2023-02-03T02:37:21;18.95;;;5.70;;
5762;SDS011;2906;53.282;9.508;2023-02-03T02:38:29;17.60;;;5.28;;
5762;SDS011;2906;53.282;9.508;2023-02-03T02:39:37;20.63;;;5.45;;
5762;SDS011;2906;53.282;9.508;2023-02-03T02:40:41;17.85;;;5.38;;
5762;SDS011;2906;53.282;9.508;2023-02-03T02:41:48;16.75;;;4.95;;
5762;SDS011;2906;53.282;9.508;2023-02-03T02:42:58;23.35;;;6.35;;
5762;SDS011;2906;53.282;9.508;2023-02-03T02:44:03;22.08;;;5.60;;
5762;SDS011;2906;53.282;9.508;2023-02-03T02:45:07;28.75;;;4.72;;
5762;SDS011;2906;53.282;9.508;2023-02-03T02:46:10;17.30;;;4.57;;
5762;SDS011;2906;53.282;9.508;2023-02-03T02:47:17;13.82;;;4.40;;
5762;SDS011;2906;53.282;9.508;2023-02-03T02:48:20;19.73;;;5.53;;
5762;SDS011;2906;53.282;9.508;2023-02-03T02:49:24;18.85;;;4.72;;
5762;SDS011;2906;53.282;9.508;2023-02-03T02:50:29;17.77;;;5.38;;
5762;SDS011;2906;53.282;9.508;2023-02-03T02:51:33;21.52;;;4.72;;
5762;SDS011;2906;53.282;9.508;2023-02-03T02:52:37;18.45;;;4.47;;
5762;SDS011;2906;53.282;9.508;2023-02-03T02:53:43;15.65;;;4.35;;
5762;SDS011;2906;53.282;9.508;2023-02-03T02:54:47;19.02;;;4.50;;
5762;SDS011;2906;53.282;9.508;2023-02-03T02:55:51;14.60;;;3.90;;
5762;SDS011;2906;53.282;9.508;2023-02-03T02:56:54;14.93;;;4.50;;
5762;SDS011;2906;53.282;9.508;2023-02-03T02:57:59;20.13;;;5.05;;
5762;SDS011;2906;53.282;9.508;2023-02-03T02:59:01;19.00;;;5.00;;
5762;SDS011;2906;53.282;9.508;2023-02-03T03:00:05;19.77;;;5.28;;
5762;SDS011;2906;53.282;9.508;2023-02-03T03:01:07;18.20;;;4.78;;
5762;SDS011;2906;53.282;9.508;2023-02-03T03:02:10;18.70;;;5.20;;
5762;SDS011;2906;53.282;9.508;2023-02-03T03:03:15;28.27;;;5.00;;
5762;SDS011;2906;53.282;9.508;2023-02-03T03:04:19;11.63;;;3.78;;
5762;SDS011;2906;53.282;9.508;2023-02-03T03:05:20;19.92;;;4.63;;
5762;SDS011;2906;53.282;9.508;2023-02-03T03:06:23;18.08;;;4.93;;
5762;SDS011;2906;53.282;9.508;2023-02-03T03:07:26;14.85;;;3.83;;
5762;SDS011;2906;53.282;9.508;2023-02-03T03:08:29;17.48;;;4.90;;
5762;SDS011;2906;53.282;9.508;2023-02-03T03:09:32;19.05;;;4.40;;
5762;SDS011;2906;53.282;9.508;2023-02-03T03:10:36;18.08;;;5.78;;
5762;SDS011;2906;53.282;9.508;2023-02-03T03:11:39;21.05;;;6.05;;
5762;SDS011;2906;53.282;9.508;2023-02-03T03:12:44;13.00;;;4.38;;
5762;SDS011;2906;53.282;9.508;2023-02-03T03:13:47;19.13;;;4.30;;
5762;SDS011;2906;53.282;9.508;2023-02-03T03:14:51;17.85;;;5.13;;
5762;SDS011;2906;53.282;9.508;2023-02-03T03:15:54;25.52;;;6.45;;
5762;SDS011;2906;53.282;9.508;2023-02-03T03:16:58;11.93;;;3.75;;
5762;SDS011;2906;53.282;9.508;2023-02-03T03:18:02;21.67;;;5.72;;
5762;SDS011;2906;53.282;9.508;2023-02-03T03:19:07;17.80;;;4.60;;
5762;SDS011;2906;53.282;9.508;2023-02-03T03:20:11;18.45;;;4.30;;
5762;SDS011;2906;53.282;9.508;2023-02-03T03:21:18;18.90;;;5.30;;
5762;SDS011;2906;53.282;9.508;2023-02-03T03:22:23;22.35;;;4.72;;
5762;SDS011;2906;53.282;9.508;2023-02-03T03:23:26;17.75;;;5.18;;
5762;SDS011;2906;53.282;9.508;2023-02-03T03:24:29;17.35;;;5.20;;
5762;SDS011;2906;53.282;9.508;2023-02-03T03:25:33;17.80;;;4.60;;
5762;SDS011;2906;53.282;9.508;2023-02-03T03:26:38;22.70;;;4.70;;
5762;SDS011;2906;53.282;9.508;2023-02-03T03:27:43;22.42;;;5.13;;
5762;SDS011;2906;53.282;9.508;2023-02-03T03:28:46;19.00;;;6.07;;
5762;SDS011;2906;53.282;9.508;2023-02-03T03:29:50;14.68;;;4.20;;
5762;SDS011;2906;53.282;9.508;2023-02-03T03:30:52;28.00;;;5.30;;
5762;SDS011;2906;53.282;9.508;2023-02-03T03:31:55;17.13;;;5.25;;
5762;SDS011;2906;53.282;9.508;2023-02-03T03:32:56;14.35;;;3.97;;
5762;SDS011;2906;53.282;9.508;2023-02-03T03:33:59;16.30;;;4.75;;
5762;SDS011;2906;53.282;9.508;2023-02-03T03:35:02;17.48;;;4.85;;
5762;SDS011;2906;53.282;9.508;2023-02-03T03:36:07;15.25;;;4.18;;
5762;SDS011;2906;53.282;9.508;2023-02-03T03:37:13;17.33;;;4.60;;
5762;SDS011;2906;53.282;9.508;2023-02-03T03:38:18;19.23;;;5.45;;
5762;SDS011;2906;53.282;9.508;2023-02-03T03:39:21;22.67;;;4.65;;
5762;SDS011;2906;53.282;9.508;2023-02-03T03:40:26;15.43;;;4.55;;
5762;SDS011;2906;53.282;9.508;2023-02-03T03:41:38;16.27;;;4.18;;
5762;SDS011;2906;53.282;9.508;2023-02-03T03:42:43;17.85;;;4.78;;
5762;SDS011;2906;53.282;9.508;2023-02-03T03:43:46;24.17;;;5.00;;
5762;SDS011;2906;53.282;9.508;2023-02-03T03:44:50;23.85;;;4.78;;
5762;SDS011;2906;53.282;9.508;2023-02-03T03:45:53;26.60;;;10.20;;
5762;SDS011;2906;53.282;9.508;2023-02-03T03:46:58;18.67;;;5.32;;
5762;SDS011;2906;53.282;9.508;2023-02-03T03:48:02;17.02;;;5.40;;
5762;SDS011;2906;53.282;9.508;2023-02-03T03:49:06;12.90;;;4.10;;
5762;SDS011;2906;53.282;9.508;2023-02-03T03:50:11;29.17;;;4.45;;
5762;SDS011;2906;53.282;9.508;2023-02-03T03:51:15;16.98;;;4.43;;
5762;SDS011;2906;53.282;9.508;2023-02-03T03:52:19;17.35;;;4.38;;
5762;SDS011;2906;53.282;9.508;2023-02-03T03:53:22;12.15;;;4.10;;
5762;SDS011;2906;53.282;9.508;2023-02-03T03:54:25;28.58;;;5.82;;
5762;SDS011;2906;53.282;9.508;2023-02-03T03:55:30;19.02;;;4.53;;
5762;SDS011;2906;53.282;9.508;2023-02-03T03:56:33;16.95;;;4.22;;
5762;SDS011;2906;53.282;9.508;2023-02-03T03:57:38;16.30;;;4.45;;
5762;SDS011;2906;53.282;9.508;2023-02-03T03:58:40;15.63;;;5.15;;
5762;SDS011;2906;53.282;9.508;2023-02-03T03:59:46;20.70;;;5.63;;
5762;SDS011;2906;53.282;9.508;2023-02-03T04:00:48;19.88;;;3.97;;
5762;SDS011;2906;53.282;9.508;2023-02-03T04:01:51;18.38;;;4.28;;
5762;SDS011;2906;53.282;9.508;2023-02-03T04:02:53;18.70;;;4.20;;
5762;SDS011;2906;53.282;9.508;2023-02-03T04:03:57;16.85;;;3.85;;
5762;SDS011;2906;53.282;9.508;2023-02-03T04:04:59;12.65;;;3.78;;
5762;SDS011;2906;53.282;9.508;2023-02-03T04:06:03;18.08;;;4.18;;
5762;SDS011;2906;53.282;9.508;2023-02-03T04:07:04;22.55;;;3.92;;
5762;SDS011;2906;53.282;9.508;2023-02-03T04:08:07;19.95;;;4.70;;
5762;SDS011;2906;53.282;9.508;2023-02-03T04:09:08;20.23;;;3.72;;
5762;SDS011;2906;53.282;9.508;2023-02-03T04:10:13;16.73;;;3.88;;
5762;SDS011;2906;53.282;9.508;2023-02-03T04:11:16;21.13;;;6.40;;
5762;SDS011;2906;53.282;9.508;2023-02-03T04:12:32;22.08;;;9.13;;
5762;SDS011;2906;53.282;9.508;2023-02-03T04:13:34;16.60;;;5.10;;
5762;SDS011;2906;53.282;9.508;2023-02-03T04:14:35;15.93;;;4.50;;
5762;SDS011;2906;53.282;9.508;2023-02-03T04:15:38;15.80;;;3.97;;
5762;SDS011;2906;53.282;9.508;2023-02-03T04:16:39;15.40;;;4.20;;
5762;SDS011;2906;53.282;9.508;2023-02-03T04:17:42;14.18;;;3.40;;
5762;SDS011;2906;53.282;9.508;2023-02-03T04:18:44;14.82;;;5.00;;
5762;SDS011;2906;53.282;9.508;2023-02-03T04:19:46;18.90;;;5.15;;
5762;SDS011;2906;53.282;9.508;2023-02-03T04:20:48;14.35;;;3.50;;
5762;SDS011;2906;53.282;9.508;2023-02-03T04:21:50;12.90;;;4.30;;
5762;SDS011;2906;53.282;9.508;2023-02-03T04:22:53;14.18;;;3.50;;
5762;SDS011;2906;53.282;9.508;2023-02-03T04:23:54;13.50;;;3.58;;
5762;SDS011;2906;53.282;9.508;2023-02-03T04:24:57;19.98;;;4.00;;
5762;SDS011;2906;53.282;9.508;2023-02-03T04:25:59;17.70;;;4.50;;
5762;SDS011;2906;53.282;9.508;2023-02-03T04:27:02;14.27;;;4.82;;
5762;SDS011;2906;53.282;9.508;2023-02-03T04:28:03;14.15;;;3.10;;
5762;SDS011;2906;53.282;9.508;2023-02-03T04:29:06;15.60;;;5.57;;
5762;SDS011;2906;53.282;9.508;2023-02-03T04:30:08;18.50;;;3.55;;
5762;SDS011;2906;53.282;9.508;2023-02-03T04:31:10;12.75;;;3.50;;
5762;SDS011;2906;53.282;9.508;2023-02-03T04:32:11;16.08;;;4.20;;
5762;SDS011;2906;53.282;9.508;2023-02-03T04:33:14;17.17;;;4.70;;
5762;SDS011;2906;53.282;9.508;2023-02-03T04:34:15;19.25;;;4.13;;
5762;SDS011;2906;53.282;9.508;2023-02-03T04:35:17;13.80;;;3.70;;
5762;SDS011;2906;53.282;9.508;2023-02-03T04:36:18;16.00;;;4.40;;
5762;SDS011;2906;53.282;9.508;2023-02-03T04:37:22;22.05;;;4.40;;
5762;SDS011;2906;53.282;9.508;2023-02-03T04:38:25;26.52;;;4.97;;
5762;SDS011;2906;53.282;9.508;2023-02-03T04:39:28;11.75;;;3.35;;
5762;SDS011;2906;53.282;9.508;2023-02-03T04:40:29;16.20;;;3.53;;
5762;SDS011;2906;53.282;9.508;2023-02-03T04:41:31;11.60;;;3.22;;
5762;SDS011;2906;53.282;9.508;2023-02-03T04:42:33;20.38;;;4.40;;
5762;SDS011;2906;53.282;9.508;2023-02-03T04:43:37;14.15;;;3.42;;
5762;SDS011;2906;53.282;9.508;2023-02-03T04:44:38;19.88;;;5.20;;
5762;SDS011;2906;53.282;9.508;2023-02-03T04:45:40;18.33;;;4.45;;
5762;SDS011;2906;53.282;9.508;2023-02-03T04:46:41;21.65;;;4.50;;
5762;SDS011;2906;53.282;9.508;2023-02-03T04:47:44;17.98;;;4.00;;
5762;SDS011;2906;53.282;9.508;2023-02-03T04:48:45;17.13;;;4.30;;
5762;SDS011;2906;53.282;9.508;2023-02-03T04:49:47;18.90;;;4.10;;
5762;SDS011;2906;53.282;9.508;2023-02-03T04:50:48;17.63;;;4.30;;
5762;SDS011;2906;53.282;9.508;2023-02-03T04:51:51;26.70;;;4.53;;
5762;SDS011;2906;53.282;9.508;2023-02-03T04:52:53;18.70;;;4.65;;
5762;SDS011;2906;53.282;9.508;2023-02-03T04:53:57;15.23;;;4.25;;
5762;SDS011;2906;53.282;9.508;2023-02-03T04:54:59;19.60;;;4.00;;
5762;SDS011;2906;53.282;9.508;2023-02-03T04:56:03;20.42;;;4.85;;
5762;SDS011;2906;53.282;9.508;2023-02-03T04:57:05;18.13;;;3.60;;
5762;SDS011;2906;53.282;9.508;2023-02-03T04:58:07;21.55;;;5.22;;
5762;SDS011;2906;53.282;9.508;2023-02-03T04:59:09;17.23;;;3.90;;
5762;SDS011;2906;53.282;9.508;2023-02-03T05:00:11;20.70;;;4.38;;
5762;SDS011;2906;53.282;9.508;2023-02-03T05:01:13;17.27;;;4.50;;
5762;SDS011;2906;53.282;9.508;2023-02-03T05:02:15;13.40;;;3.42;;
5762;SDS011;2906;53.282;9.508;2023-02-03T05:03:16;13.65;;;4.00;;
5762;SDS011;2906;53.282;9.508;2023-02-03T05:04:19;11.70;;;5.38;;
5762;SDS011;2906;53.282;9.508;2023-02-03T05:05:20;22.80;;;4.78;;
5762;SDS011;2906;53.282;9.508;2023-02-03T05:06:23;19.67;;;5.32;;
5762;SDS011;2906;53.282;9.508;2023-02-03T05:07:25;15.07;;;4.28;;
5762;SDS011;2906;53.282;9.508;2023-02-03T05:08:28;19.38;;;4.95;;
5762;SDS011;2906;53.282;9.508;2023-02-03T05:09:30;19.85;;;4.85;;
5762;SDS011;2906;53.282;9.508;2023-02-03T05:10:32;18.90;;;3.80;;
5762;SDS011;2906;53.282;9.508;2023-02-03T05:11:34;22.00;;;5.10;;
5762;SDS011;2906;53.282;9.508;2023-02-03T05:12:35;18.60;;;4.57;;
5762;SDS011;2906;53.282;9.508;2023-02-03T05:13:37;20.27;;;5.40;;
5762;SDS011;2906;53.282;9.508;2023-02-03T05:14:38;21.60;;;6.53;;
5762;SDS011;2906;53.282;9.508;2023-02-03T05:15:41;17.50;;;5.25;;
5762;SDS011;2906;53.282;9.508;2023-02-03T05:16:42;18.45;;;4.50;;
5762;SDS011;2906;53.282;9.508;2023-02-03T05:17:44;23.48;;;5.22;;
5762;SDS011;2906;53.282;9.508;2023-02-03T05:18:46;23.38;;;5.05;;
5762;SDS011;2906;53.282;9.508;2023-02-03T05:19:48;19.17;;;6.57;;
5762;SDS011;2906;53.282;9.508;2023-02-03T05:20:49;19.52;;;5.53;;
5762;SDS011;2906;53.282;9.508;2023-02-03T05:21:51;15.25;;;4.15;;
5762;SDS011;2906;53.282;9.508;2023-02-03T05:22:53;15.20;;;5.05;;
5762;SDS011;2906;53.282;9.508;2023-02-03T05:23:57;22.80;;;6.55;;
5762;SDS011;2906;53.282;9.508;2023-02-03T05:24:59;15.60;;;4.82;;
5762;SDS011;2906;53.282;9.508;2023-02-03T05:26:01;30.02;;;5.78;;
5762;SDS011;2906;53.282;9.508;2023-02-03T05:27:03;18.35;;;5.60;;
5762;SDS011;2906;53.282;9.508;2023-02-03T05:28:05;16.48;;;4.93;;
5762;SDS011;2906;53.282;9.508;2023-02-03T05:29:06;23.95;;;6.53;;
5762;SDS011;2906;53.282;9.508;2023-02-03T05:30:10;19.50;;;5.20;;
5762;SDS011;2906;53.282;9.508;2023-02-03T05:31:12;20.65;;;6.00;;
5762;SDS011;2906;53.282;9.508;2023-02-03T05:32:14;15.20;;;5.07;;
5762;SDS011;2906;53.282;9.508;2023-02-03T05:33:15;18.17;;;5.10;;
5762;SDS011;2906;53.282;9.508;2023-02-03T05:34:18;19.77;;;6.22;;
5762;SDS011;2906;53.282;9.508;2023-02-03T05:35:19;15.20;;;3.95;;
5762;SDS011;2906;53.282;9.508;2023-02-03T05:36:21;19.83;;;6.15;;
5762;SDS011;2906;53.282;9.508;2023-02-03T05:37:22;22.58;;;6.65;;
5762;SDS011;2906;53.282;9.508;2023-02-03T05:38:25;22.70;;;6.35;;
5762;SDS011;2906;53.282;9.508;2023-02-03T05:39:27;18.23;;;5.63;;
5762;SDS011;2906;53.282;9.508;2023-02-03T05:40:29;19.95;;;5.38;;
5762;SDS011;2906;53.282;9.508;2023-02-03T05:41:45;21.98;;;5.05;;
5762;SDS011;2906;53.282;9.508;2023-02-03T05:42:54;23.98;;;6.22;;
5762;SDS011;2906;53.282;9.508;2023-02-03T05:43:55;18.75;;;6.30;;
5762;SDS011;2906;53.282;9.508;2023-02-03T05:44:57;25.20;;;5.68;;
5762;SDS011;2906;53.282;9.508;2023-02-03T05:46:01;17.42;;;5.38;;
5762;SDS011;2906;53.282;9.508;2023-02-03T05:47:04;21.20;;;6.38;;
5762;SDS011;2906;53.282;9.508;2023-02-03T05:48:06;23.50;;;7.15;;
5762;SDS011;2906;53.282;9.508;2023-02-03T05:49:08;22.50;;;6.10;;
5762;SDS011;2906;53.282;9.508;2023-02-03T05:50:11;25.77;;;8.75;;
5762;SDS011;2906;53.282;9.508;2023-02-03T05:51:12;15.85;;;5.35;;
5762;SDS011;2906;53.282;9.508;2023-02-03T05:52:14;21.13;;;6.97;;
5762;SDS011;2906;53.282;9.508;2023-02-03T05:53:17;21.70;;;5.80;;
5762;SDS011;2906;53.282;9.508;2023-02-03T05:54:18;13.27;;;4.72;;
5762;SDS011;2906;53.282;9.508;2023-02-03T05:55:22;20.88;;;6.75;;
5762;SDS011;2906;53.282;9.508;2023-02-03T05:56:23;19.55;;;5.40;;
5762;SDS011;2906;53.282;9.508;2023-02-03T05:57:25;23.85;;;5.00;;
5762;SDS011;2906;53.282;9.508;2023-02-03T05:58:26;22.17;;;5.18;;
5762;SDS011;2906;53.282;9.508;2023-02-03T05:59:29;26.05;;;7.00;;
5762;SDS011;2906;53.282;9.508;2023-02-03T06:00:31;22.20;;;6.90;;
5762;SDS011;2906;53.282;9.508;2023-02-03T06:01:33;23.50;;;5.25;;
5762;SDS011;2906;53.282;9.508;2023-02-03T06:02:35;19.42;;;5.20;;
5762;SDS011;2906;53.282;9.508;2023-02-03T06:03:37;15.20;;;4.82;;
5762;SDS011;2906;53.282;9.508;2023-02-03T06:04:38;27.20;;;6.50;;
5762;SDS011;2906;53.282;9.508;2023-02-03T06:05:41;20.20;;;5.05;;
5762;SDS011;2906;53.282;9.508;2023-02-03T06:06:43;21.67;;;5.78;;
5762;SDS011;2906;53.282;9.508;2023-02-03T06:07:46;18.40;;;5.00;;
5762;SDS011;2906;53.282;9.508;2023-02-03T06:08:48;18.15;;;4.93;;
5762;SDS011;2906;53.282;9.508;2023-02-03T06:09:55;21.67;;;5.50;;
5762;SDS011;2906;53.282;9.508;2023-02-03T06:10:58;20.27;;;5.55;;
5762;SDS011;2906;53.282;9.508;2023-02-03T06:12:00;15.77;;;3.67;;
5762;SDS011;2906;53.282;9.508;2023-02-03T06:13:06;18.75;;;4.43;;
5762;SDS011;2906;53.282;9.508;2023-02-03T06:14:09;20.35;;;5.68;;
5762;SDS011;2906;53.282;9.508;2023-02-03T06:15:10;14.43;;;3.92;;
5762;SDS011;2906;53.282;9.508;2023-02-03T06:16:12;16.73;;;5.55;;
5762;SDS011;2906;53.282;9.508;2023-02-03T06:17:15;20.52;;;4.85;;
5762;SDS011;2906;53.282;9.508;2023-02-03T06:18:17;22.88;;;5.10;;
5762;SDS011;2906;53.282;9.508;2023-02-03T06:19:18;26.60;;;5.38;;
5762;SDS011;2906;53.282;9.508;2023-02-03T06:20:21;21.27;;;6.85;;
5762;SDS011;2906;53.282;9.508;2023-02-03T06:21:22;18.38;;;5.13;;
5762;SDS011;2906;53.282;9.508;2023-02-03T06:22:24;17.92;;;4.65;;
5762;SDS011;2906;53.282;9.508;2023-02-03T06:23:26;18.48;;;6.50;;
5762;SDS011;2906;53.282;9.508;2023-02-03T06:24:28;21.58;;;4.88;;
5762;SDS011;2906;53.282;9.508;2023-02-03T06:25:29;25.33;;;6.18;;
5762;SDS011;2906;53.282;9.508;2023-02-03T06:26:34;27.75;;;6.00;;